Terminal Aerodrome Forecast
Issued by NWS

Home | Current Version | Previous Version | Text Only | Print | Product List | Glossary On
Versions: 1 2 3 4 5 6 7 8 9 10 11 12 13 14 15
000
FTUS43 KAPX 110900 AAA
TAFPLN
TAF AMD
KPLN 110954Z 1110/1206 18003KT P6SM FEW250
     FM111500 23008KT P6SM FEW050
     FM120000 VRB03KT P6SM BKN150=

USA.gov is the U.S. government's official web portal to all federal, state and local government web resources and services.